createdAt,value
2017-12-09T00:02:04.195Z,93.48
2017-12-09T00:04:31.735Z,93.31
2017-12-09T00:06:59.263Z,93.09
2017-12-09T00:09:26.794Z,92.86
2017-12-09T00:11:54.315Z,92.75
2017-12-09T00:14:21.862Z,92.97
2017-12-09T00:16:49.369Z,93.54
2017-12-09T00:19:16.886Z,93.36
2017-12-09T00:21:44.408Z,92.43
2017-12-09T00:24:11.941Z,92.22
2017-12-09T00:26:39.428Z,92.97
2017-12-09T00:29:06.922Z,93.69
2017-12-09T00:31:34.441Z,93.82
2017-12-09T00:34:01.965Z,94.42
2017-12-09T00:36:29.483Z,93.67
2017-12-09T00:38:56.998Z,93.16
2017-12-09T00:41:24.519Z,93.61
2017-12-09T00:43:52.046Z,94.09
2017-12-09T00:46:19.549Z,93.88
2017-12-09T00:48:47.042Z,94.15
2017-12-09T00:51:14.569Z,93.32
2017-12-09T00:53:42.075Z,92.05
2017-12-09T00:56:09.600Z,91.80
2017-12-09T00:58:38.015Z,91.41
2017-12-09T01:01:05.519Z,91.78
2017-12-09T01:03:33.079Z,91.01
2017-12-09T01:06:00.612Z,90.45
2017-12-09T01:08:28.127Z,92.67
2017-12-09T01:10:55.628Z,95.35
2017-12-09T01:13:23.122Z,95.41
2017-12-09T01:16:02.556Z,94.82
2017-12-09T01:18:42.091Z,94.42
2017-12-09T01:21:09.605Z,94.19
2017-12-09T01:23:37.124Z,93.23
2017-12-09T01:26:04.652Z,93.50
2017-12-09T01:28:32.219Z,92.70
2017-12-09T01:30:59.721Z,92.94
2017-12-09T01:33:27.238Z,92.92
2017-12-09T01:35:54.779Z,92.92
2017-12-09T01:38:22.291Z,93.09
2017-12-09T01:40:49.822Z,92.96
2017-12-09T01:43:17.326Z,92.44
2017-12-09T01:45:44.821Z,93.57
2017-12-09T01:48:12.314Z,93.84
2017-12-09T01:50:39.802Z,93.83
2017-12-09T01:53:07.450Z,94.50
2017-12-09T01:55:34.959Z,95.07
2017-12-09T01:58:02.474Z,95.30
2017-12-09T02:00:30.013Z,94.79
2017-12-09T02:02:57.531Z,93.11
2017-12-09T02:05:25.066Z,92.03
2017-12-09T02:07:52.576Z,91.17
2017-12-09T02:10:20.086Z,90.91
2017-12-09T02:12:47.621Z,91.74
2017-12-09T02:15:15.153Z,92.03
2017-12-09T02:17:42.708Z,92.18
2017-12-09T02:20:10.208Z,92.09
2017-12-09T02:22:37.721Z,92.40
2017-12-09T02:25:05.226Z,92.80
2017-12-09T02:27:32.751Z,93.28
2017-12-09T02:30:00.241Z,92.67
2017-12-09T02:32:27.780Z,91.53
2017-12-09T02:34:55.289Z,92.22
2017-12-09T02:37:22.833Z,92.78
2017-12-09T02:39:50.337Z,92.41
2017-12-09T02:42:17.845Z,93.11
2017-12-09T02:44:45.337Z,93.03
2017-12-09T02:47:12.848Z,93.26
2017-12-09T02:49:40.364Z,92.82
2017-12-09T02:52:07.878Z,93.12
2017-12-09T02:54:35.444Z,91.52
2017-12-09T02:57:02.964Z,90.45
2017-12-09T02:59:30.472Z,90.00
2017-12-09T03:01:57.976Z,89.72
2017-12-09T03:04:25.484Z,88.86
2017-12-09T03:06:53.011Z,90.17
2017-12-09T03:09:20.504Z,91.15
2017-12-09T03:11:48.156Z,90.49
2017-12-09T03:14:15.656Z,92.19
2017-12-09T03:16:43.144Z,92.11
2017-12-09T03:19:10.654Z,92.12
2017-12-09T03:21:38.166Z,90.59
2017-12-09T03:24:05.691Z,89.30
2017-12-09T03:26:33.207Z,89.14
2017-12-09T03:29:00.716Z,89.81
2017-12-09T03:31:28.570Z,89.35
2017-12-09T03:33:56.063Z,89.11
2017-12-09T03:36:23.636Z,89.18
2017-12-09T03:38:51.230Z,89.38
2017-12-09T03:41:18.747Z,91.04
2017-12-09T03:43:46.256Z,91.20
2017-12-09T03:46:13.780Z,89.43
2017-12-09T03:48:41.285Z,89.79
2017-12-09T03:51:08.777Z,91.36
2017-12-09T03:53:36.316Z,90.76
2017-12-09T03:56:03.812Z,89.96
2017-12-09T03:58:31.325Z,90.58
2017-12-09T04:00:58.822Z,90.52
2017-12-09T04:03:26.339Z,90.18
2017-12-09T04:05:53.860Z,90.73
2017-12-09T04:08:21.395Z,90.44
2017-12-09T04:10:48.900Z,90.10
2017-12-09T04:13:16.404Z,90.35
2017-12-09T04:15:43.913Z,89.81
2017-12-09T04:18:11.416Z,89.53
2017-12-09T04:20:38.920Z,89.06
2017-12-09T04:23:06.433Z,87.41
2017-12-09T04:25:33.928Z,87.46
2017-12-09T04:28:01.442Z,88.10
2017-12-09T04:30:28.958Z,87.08
2017-12-09T04:32:56.456Z,86.87
2017-12-09T04:35:23.977Z,87.51
2017-12-09T04:37:51.489Z,88.01
2017-12-09T04:40:18.991Z,87.38
2017-12-09T04:42:46.492Z,88.18
2017-12-09T04:45:14.177Z,88.18
2017-12-09T04:47:41.678Z,87.79
2017-12-09T04:50:09.191Z,87.90
2017-12-09T04:52:36.698Z,87.32
2017-12-09T04:55:04.193Z,88.34
2017-12-09T04:57:31.733Z,88.87
2017-12-09T04:59:59.244Z,88.24
2017-12-09T05:02:26.798Z,88.46
2017-12-09T05:04:54.300Z,88.87
2017-12-09T05:07:21.909Z,88.53
2017-12-09T05:09:49.535Z,88.66
2017-12-09T05:12:17.028Z,88.39
2017-12-09T05:14:44.532Z,87.79
2017-12-09T05:17:12.027Z,88.56
2017-12-09T05:19:39.546Z,89.66
2017-12-09T05:22:07.104Z,88.71
2017-12-09T05:24:34.625Z,88.19
2017-12-09T05:27:02.204Z,87.72
2017-12-09T05:29:29.709Z,88.49
2017-12-09T05:31:57.205Z,89.09
2017-12-09T05:34:24.741Z,87.92
2017-12-09T05:36:52.263Z,87.87
2017-12-09T05:39:19.845Z,88.42
2017-12-09T05:41:47.369Z,87.27
2017-12-09T05:44:14.881Z,87.43
2017-12-09T05:46:42.418Z,87.38
2017-12-09T05:49:09.913Z,88.02
2017-12-09T05:51:37.451Z,87.70
2017-12-09T05:54:05.551Z,87.82
2017-12-09T05:56:33.087Z,87.48
2017-12-09T05:59:00.601Z,86.79
2017-12-09T06:01:28.134Z,87.86
2017-12-09T06:03:55.663Z,87.87
2017-12-09T06:06:23.161Z,86.61
2017-12-09T06:08:50.670Z,87.31
2017-12-09T06:11:18.180Z,87.53
2017-12-09T06:13:45.699Z,88.05
2017-12-09T06:16:13.202Z,88.02
2017-12-09T06:18:40.716Z,86.98
2017-12-09T06:21:08.224Z,86.34
2017-12-09T06:23:35.760Z,87.58
2017-12-09T06:26:03.275Z,88.48
2017-12-09T06:28:30.786Z,88.19
2017-12-09T06:30:58.291Z,88.01
2017-12-09T06:33:25.797Z,87.71
2017-12-09T06:35:53.316Z,87.13
2017-12-09T06:38:20.828Z,85.95
2017-12-09T06:40:48.345Z,86.34
2017-12-09T06:43:15.844Z,86.04
2017-12-09T06:45:43.379Z,85.03
2017-12-09T06:48:10.904Z,84.70
2017-12-09T06:50:38.407Z,83.82
2017-12-09T06:53:05.916Z,84.17
2017-12-09T06:55:33.471Z,83.96
2017-12-09T06:58:00.978Z,84.16
2017-12-09T07:00:28.637Z,83.57
2017-12-09T07:02:56.225Z,83.89
2017-12-09T07:05:23.745Z,84.09
2017-12-09T07:07:51.247Z,83.32
2017-12-09T07:10:18.777Z,84.37
2017-12-09T07:12:46.313Z,83.88
2017-12-09T07:15:13.871Z,83.05
2017-12-09T07:17:41.393Z,83.72
2017-12-09T07:20:08.901Z,83.57
2017-12-09T07:22:36.402Z,84.38
2017-12-09T07:25:03.902Z,84.57
2017-12-09T07:27:31.392Z,83.95
2017-12-09T07:29:58.908Z,84.78
2017-12-09T07:32:26.418Z,83.65
2017-12-09T07:34:53.942Z,83.76
2017-12-09T07:37:21.439Z,83.03
2017-12-09T07:39:48.946Z,84.11
2017-12-09T07:42:16.462Z,84.18
2017-12-09T07:44:43.975Z,83.02
2017-12-09T07:47:11.469Z,81.76
2017-12-09T07:49:38.975Z,82.91
2017-12-09T07:52:06.469Z,81.30
2017-12-09T07:54:34.017Z,82.48
2017-12-09T07:57:01.495Z,82.89
2017-12-09T07:59:29.037Z,81.81
2017-12-09T08:01:56.554Z,81.62
2017-12-09T08:04:24.082Z,80.62
2017-12-09T08:06:51.660Z,78.60
2017-12-09T08:09:19.181Z,79.04
2017-12-09T08:11:46.828Z,78.88
2017-12-09T08:14:14.363Z,78.17
2017-12-09T08:16:41.849Z,78.44
2017-12-09T08:19:09.381Z,80.28
2017-12-09T08:21:36.898Z,80.09
2017-12-09T08:24:04.411Z,78.46
2017-12-09T08:26:32.116Z,77.34
2017-12-09T08:28:59.624Z,77.97
2017-12-09T08:31:27.171Z,76.98
2017-12-09T08:33:54.745Z,77.46
2017-12-09T08:36:22.433Z,76.23
2017-12-09T08:38:49.956Z,76.14
2017-12-09T08:41:17.486Z,75.75
2017-12-09T08:43:45.009Z,75.62
2017-12-09T08:46:12.505Z,73.84
2017-12-09T08:48:40.006Z,74.24
2017-12-09T08:51:07.829Z,72.94
2017-12-09T08:53:35.349Z,69.90
2017-12-09T08:56:02.881Z,70.90
2017-12-09T08:58:30.387Z,68.62
2017-12-09T09:00:57.966Z,67.20
2017-12-09T09:03:25.480Z,63.69
2017-12-09T09:05:53.016Z,56.44
2017-12-09T09:08:20.590Z,61.57
2017-12-09T09:10:48.106Z,59.21
2017-12-09T09:13:15.601Z,63.82
2017-12-09T09:15:43.098Z,66.23
2017-12-09T09:18:11.162Z,61.75
2017-12-09T09:20:38.661Z,62.92
2017-12-09T09:23:06.176Z,62.58
2017-12-09T09:25:33.686Z,57.08
2017-12-09T09:28:01.206Z,61.08
2017-12-09T09:30:28.718Z,60.11
2017-12-09T09:32:56.241Z,57.66
2017-12-09T09:35:23.755Z,53.22
2017-12-09T09:37:51.507Z,49.73
2017-12-09T09:40:19.080Z,51.71
2017-12-09T09:42:46.631Z,58.66
2017-12-09T09:45:14.147Z,64.56
2017-12-09T09:47:41.668Z,63.86
2017-12-09T09:50:09.212Z,64.55
2017-12-09T09:52:36.718Z,66.29
2017-12-09T09:55:04.258Z,62.98
2017-12-09T09:57:31.765Z,66.23
2017-12-09T09:59:59.282Z,60.31
2017-12-09T10:02:26.798Z,59.62
2017-12-09T10:04:54.305Z,57.97
2017-12-09T10:07:21.824Z,57.36
2017-12-09T10:09:49.320Z,54.46
2017-12-09T10:12:16.833Z,52.77
2017-12-09T10:14:44.316Z,56.60
2017-12-09T10:17:11.833Z,58.96
2017-12-09T10:19:39.334Z,59.85
2017-12-09T10:22:06.844Z,58.33
2017-12-09T10:24:34.376Z,61.29
2017-12-09T10:27:02.818Z,62.55
2017-12-09T10:29:30.321Z,63.89
2017-12-09T10:31:57.817Z,63.71
2017-12-09T10:34:25.324Z,61.01
2017-12-09T10:36:52.813Z,60.34
2017-12-09T10:39:20.414Z,59.18
2017-12-09T10:41:47.980Z,61.17
2017-12-09T10:44:15.492Z,58.21
2017-12-09T10:46:43.017Z,58.24
2017-12-09T10:49:10.524Z,58.55
2017-12-09T10:51:38.063Z,62.26
2017-12-09T10:54:05.844Z,56.38
2017-12-09T10:56:33.343Z,57.31
2017-12-09T10:59:00.876Z,61.22
2017-12-09T11:01:28.358Z,57.95
2017-12-09T11:03:55.847Z,56.51
2017-12-09T11:06:23.354Z,58.83
2017-12-09T11:08:51.102Z,59.49
2017-12-09T11:11:18.623Z,59.27
2017-12-09T11:13:46.131Z,56.53
2017-12-09T11:16:13.642Z,56.64
2017-12-09T11:18:41.208Z,57.08
2017-12-09T11:21:08.725Z,58.36
2017-12-09T11:23:36.228Z,57.80
2017-12-09T11:26:03.808Z,58.75
2017-12-09T11:28:31.315Z,52.90
2017-12-09T11:30:58.849Z,59.02
2017-12-09T11:33:26.463Z,54.36
2017-12-09T11:35:53.971Z,58.77
2017-12-09T11:38:21.547Z,59.04
2017-12-09T11:40:49.072Z,55.34
2017-12-09T11:43:16.609Z,51.18
2017-12-09T11:45:44.136Z,55.07
2017-12-09T11:48:11.993Z,57.57
2017-12-09T11:50:39.512Z,56.52
2017-12-09T11:53:07.025Z,51.38
2017-12-09T11:55:34.592Z,57.20
2017-12-09T11:58:02.102Z,55.39
2017-12-09T12:00:29.741Z,54.89
2017-12-09T12:02:57.236Z,55.21
2017-12-09T12:05:24.735Z,57.22
2017-12-09T12:07:52.273Z,58.47
2017-12-09T12:10:19.780Z,55.50
2017-12-09T12:12:47.294Z,55.11
2017-12-09T12:15:14.893Z,56.52
2017-12-09T12:17:42.559Z,58.87
2017-12-09T12:20:10.198Z,58.67
2017-12-09T12:22:37.710Z,58.75
2017-12-09T12:25:05.214Z,58.33
2017-12-09T12:27:32.721Z,56.79
2017-12-09T12:30:00.224Z,55.68
2017-12-09T12:32:27.737Z,56.20
2017-12-09T12:34:55.255Z,58.05
2017-12-09T12:37:22.744Z,58.06
2017-12-09T12:39:50.273Z,58.13
2017-12-09T12:42:18.012Z,59.06
2017-12-09T12:44:45.551Z,57.58
2017-12-09T12:47:13.045Z,57.46
2017-12-09T12:49:40.557Z,56.60
2017-12-09T12:52:08.040Z,55.48
2017-12-09T12:54:35.716Z,55.92
2017-12-09T12:57:03.209Z,56.28
2017-12-09T12:59:30.701Z,56.71
2017-12-09T13:01:58.201Z,57.45
2017-12-09T13:04:25.730Z,54.54
2017-12-09T13:06:53.259Z,58.34
2017-12-09T13:09:20.764Z,60.56
2017-12-09T13:11:48.292Z,58.27
2017-12-09T13:14:15.792Z,58.32
2017-12-09T13:16:43.294Z,59.90
2017-12-09T13:19:10.797Z,57.54
2017-12-09T13:21:38.334Z,59.20
2017-12-09T13:24:05.836Z,57.49
2017-12-09T13:26:33.373Z,56.90
2017-12-09T13:29:00.877Z,54.81
2017-12-09T13:31:28.405Z,58.65
2017-12-09T13:33:55.921Z,56.76
2017-12-09T13:36:23.454Z,55.48
2017-12-09T13:38:50.981Z,59.70
2017-12-09T13:41:18.482Z,60.44
2017-12-09T13:43:45.989Z,60.96
2017-12-09T13:46:15.521Z,60.63
2017-12-09T13:48:43.021Z,61.21
2017-12-09T13:51:10.524Z,61.29
2017-12-09T13:53:38.069Z,62.54
2017-12-09T13:56:05.561Z,63.71
2017-12-09T13:58:33.062Z,64.11
2017-12-09T14:01:00.592Z,64.24
2017-12-09T14:03:28.078Z,64.42
2017-12-09T14:05:55.597Z,62.64
2017-12-09T14:08:23.088Z,61.86
2017-12-09T14:10:50.576Z,63.72
2017-12-09T14:13:18.081Z,64.12
2017-12-09T14:15:45.613Z,61.96
2017-12-09T14:18:13.129Z,62.94
2017-12-09T14:20:40.654Z,63.50
2017-12-09T14:23:08.150Z,63.68
2017-12-09T14:25:35.649Z,63.95
2017-12-09T14:28:03.155Z,63.33
2017-12-09T14:30:30.665Z,62.36
2017-12-09T14:32:58.316Z,62.54
2017-12-09T14:35:25.850Z,62.04
2017-12-09T14:37:53.593Z,63.40
2017-12-09T14:40:21.302Z,63.52
2017-12-09T14:42:48.815Z,63.04
2017-12-09T14:45:16.326Z,63.71
2017-12-09T14:47:43.838Z,63.37
2017-12-09T14:50:11.486Z,64.60
2017-12-09T14:52:38.999Z,64.40
2017-12-09T14:55:06.561Z,64.02
2017-12-09T14:57:34.090Z,64.68
2017-12-09T15:00:01.610Z,63.97
2017-12-09T15:02:29.288Z,64.67
2017-12-09T15:04:56.790Z,65.54
2017-12-09T15:07:24.335Z,67.48
2017-12-09T15:09:52.197Z,66.09
2017-12-09T15:12:19.851Z,66.23
2017-12-09T15:14:47.389Z,66.39
2017-12-09T15:17:15.078Z,67.12
2017-12-09T15:19:42.776Z,67.26
2017-12-09T15:22:10.434Z,66.97
2017-12-09T15:24:38.007Z,66.86
2017-12-09T15:27:05.497Z,67.02
2017-12-09T15:29:34.299Z,67.10
2017-12-09T15:32:01.889Z,68.02
2017-12-09T15:34:30.448Z,67.19
2017-12-09T15:36:57.955Z,68.35
2017-12-09T15:39:26.244Z,68.27
2017-12-09T15:41:53.770Z,68.78
2017-12-09T15:44:22.271Z,68.17
2017-12-09T15:46:49.866Z,68.31
2017-12-09T15:49:18.380Z,69.14
2017-12-09T15:51:47.232Z,69.51
2017-12-09T15:54:14.788Z,69.57
2017-12-09T15:56:42.843Z,70.06
2017-12-09T15:59:10.395Z,70.49
2017-12-09T16:01:38.443Z,70.42
2017-12-09T16:04:06.108Z,69.73
2017-12-09T16:06:33.622Z,69.35
2017-12-09T16:09:01.105Z,70.03
2017-12-09T16:11:28.629Z,69.99
2017-12-09T16:13:56.147Z,70.49
2017-12-09T16:16:23.652Z,70.94
2017-12-09T16:18:51.230Z,70.55
2017-12-09T16:21:19.429Z,70.40
2017-12-09T16:23:46.926Z,71.50
2017-12-09T16:26:14.447Z,70.73
2017-12-09T16:28:42.076Z,70.67
2017-12-09T16:31:09.598Z,70.28
2017-12-09T16:33:37.634Z,70.81
2017-12-09T16:36:05.807Z,72.35
2017-12-09T16:38:33.575Z,70.51
2017-12-09T16:41:01.263Z,70.53
2017-12-09T16:43:28.832Z,71.61
2017-12-09T16:45:56.388Z,71.55
2017-12-09T16:48:23.917Z,71.29
2017-12-09T16:50:51.518Z,72.35
2017-12-09T16:53:19.024Z,71.16
2017-12-09T16:55:46.651Z,71.35
2017-12-09T16:58:14.266Z,70.94
2017-12-09T17:00:41.810Z,71.96
2017-12-09T17:03:09.423Z,71.10
2017-12-09T17:05:36.931Z,70.88
2017-12-09T17:08:04.446Z,70.53
2017-12-09T17:10:31.977Z,70.62
2017-12-09T17:12:59.768Z,69.48
2017-12-09T17:15:27.293Z,69.98
2017-12-09T17:17:54.817Z,70.74
2017-12-09T17:20:22.462Z,69.78
2017-12-09T17:22:49.987Z,69.50
2017-12-09T17:25:18.234Z,69.20
2017-12-09T17:27:45.789Z,70.06
2017-12-09T17:30:13.345Z,70.20
2017-12-09T17:32:40.860Z,70.75
2017-12-09T17:35:08.625Z,70.61
2017-12-09T17:37:36.166Z,70.24
2017-12-09T17:40:03.880Z,70.77
2017-12-09T17:42:31.440Z,70.61
2017-12-09T17:44:58.935Z,70.45
2017-12-09T17:47:26.467Z,69.09
2017-12-09T17:49:55.310Z,69.29
2017-12-09T17:52:22.938Z,69.45
2017-12-09T17:54:50.461Z,68.65
2017-12-09T17:57:18.018Z,68.18
2017-12-09T17:59:45.523Z,68.20
2017-12-09T18:02:13.120Z,68.26
2017-12-09T18:04:40.647Z,68.60
2017-12-09T18:07:08.178Z,69.19
2017-12-09T18:09:35.692Z,68.27
2017-12-09T18:12:03.237Z,69.77
2017-12-09T18:14:30.780Z,69.70
2017-12-09T18:16:58.314Z,69.94
2017-12-09T18:19:25.858Z,69.82
2017-12-09T18:21:53.352Z,70.40
2017-12-09T18:24:20.971Z,70.50
2017-12-09T18:26:49.233Z,71.12
2017-12-09T18:29:16.755Z,70.80
2017-12-09T18:31:44.281Z,71.83
2017-12-09T18:34:11.788Z,71.70
2017-12-09T18:36:39.332Z,72.25
2017-12-09T18:39:06.880Z,71.57
2017-12-09T18:41:34.393Z,71.63
2017-12-09T18:44:01.960Z,72.17
2017-12-09T18:46:29.908Z,71.46
2017-12-09T18:48:57.429Z,72.03
2017-12-09T18:51:25.049Z,72.39
2017-12-09T18:53:52.585Z,72.31
2017-12-09T18:56:20.169Z,72.20
2017-12-09T18:58:47.678Z,73.22
2017-12-09T19:01:15.190Z,72.60
2017-12-09T19:03:42.968Z,73.87
2017-12-09T19:06:10.486Z,72.75
2017-12-09T19:08:37.999Z,72.64
2017-12-09T19:11:05.501Z,73.29
2017-12-09T19:13:33.022Z,73.22
2017-12-09T19:16:00.585Z,73.55
2017-12-09T19:18:28.166Z,73.88
2017-12-09T19:20:55.773Z,73.62
2017-12-09T19:23:23.313Z,73.92
2017-12-09T19:25:50.809Z,74.03
2017-12-09T19:28:18.852Z,75.06
2017-12-09T19:30:46.712Z,74.47
2017-12-09T19:33:14.231Z,74.26
2017-12-09T19:35:41.761Z,75.11
2017-12-09T19:38:09.290Z,75.02
2017-12-09T19:40:37.445Z,75.12
2017-12-09T19:43:05.015Z,74.43
2017-12-09T19:45:34.329Z,73.98
2017-12-09T19:48:01.907Z,74.95
2017-12-09T19:50:29.442Z,74.33
2017-12-09T19:52:57.004Z,74.26
2017-12-09T19:55:24.613Z,75.01
2017-12-09T19:57:52.190Z,75.06
2017-12-09T20:00:20.249Z,74.61
2017-12-09T20:02:47.769Z,74.14
2017-12-09T20:05:15.331Z,75.10
2017-12-09T20:07:42.882Z,73.77
2017-12-09T20:10:10.404Z,73.18
2017-12-09T20:12:38.060Z,74.41
2017-12-09T20:15:05.601Z,74.97
2017-12-09T20:17:34.248Z,74.40
2017-12-09T20:20:01.770Z,75.22
2017-12-09T20:22:29.302Z,75.32
2017-12-09T20:24:56.843Z,77.62
2017-12-09T20:27:24.396Z,78.10
2017-12-09T20:29:54.070Z,79.73
2017-12-09T20:32:21.589Z,80.29
2017-12-09T20:34:49.257Z,78.58
2017-12-09T20:37:16.817Z,79.25
2017-12-09T20:39:44.281Z,79.60
2017-12-09T20:42:12.878Z,78.39
2017-12-09T20:44:40.442Z,80.73
2017-12-09T20:47:07.985Z,82.65
2017-12-09T20:49:35.723Z,83.21
2017-12-09T20:52:03.399Z,83.58
2017-12-09T20:54:30.918Z,81.71
2017-12-09T20:56:58.458Z,82.75
2017-12-09T20:59:25.973Z,82.52
2017-12-09T21:01:53.491Z,81.97
2017-12-09T21:04:21.012Z,79.40
2017-12-09T21:06:48.527Z,81.27
2017-12-09T21:09:16.053Z,81.46
2017-12-09T21:11:43.673Z,82.07
2017-12-09T21:14:11.239Z,81.33
2017-12-09T21:16:38.753Z,79.96
2017-12-09T21:19:06.323Z,80.15
2017-12-09T21:21:33.837Z,79.76
2017-12-09T21:24:01.368Z,80.18
2017-12-09T21:26:28.913Z,79.33
2017-12-09T21:28:56.447Z,78.44
2017-12-09T21:31:23.971Z,81.02
2017-12-09T21:33:51.519Z,78.66
2017-12-09T21:36:19.036Z,78.66
2017-12-09T21:38:46.550Z,76.86
2017-12-09T21:41:14.060Z,74.35
2017-12-09T21:43:41.629Z,74.27
2017-12-09T21:46:09.237Z,73.51
2017-12-09T21:48:36.746Z,73.58
2017-12-09T21:51:04.249Z,76.15
2017-12-09T21:53:31.810Z,79.28
2017-12-09T21:55:59.330Z,75.50
2017-12-09T21:58:27.412Z,74.98
2017-12-09T22:00:56.442Z,74.02
2017-12-09T22:03:23.956Z,74.15
2017-12-09T22:05:51.481Z,73.19
2017-12-09T22:08:19.074Z,75.05
2017-12-09T22:10:46.551Z,72.95
2017-12-09T22:13:14.060Z,70.46
2017-12-09T22:15:41.700Z,72.27
2017-12-09T22:18:09.228Z,72.95
2017-12-09T22:20:36.809Z,72.87
2017-12-09T22:23:04.471Z,77.43
2017-12-09T22:25:32.078Z,80.00
2017-12-09T22:27:59.632Z,80.41
2017-12-09T22:30:27.178Z,81.21
2017-12-09T22:32:54.689Z,81.96
2017-12-09T22:35:22.196Z,79.51
2017-12-09T22:37:49.752Z,82.08
2017-12-09T22:40:17.318Z,77.94
2017-12-09T22:42:44.873Z,74.02
2017-12-09T22:45:12.677Z,81.53
2017-12-09T22:47:40.222Z,81.53
2017-12-09T22:50:07.754Z,81.78
2017-12-09T22:52:35.336Z,82.26
2017-12-09T22:55:02.861Z,83.42
2017-12-09T22:57:30.386Z,83.73
2017-12-09T22:59:58.130Z,82.15
2017-12-09T23:02:25.661Z,79.94
2017-12-09T23:04:53.179Z,80.00
2017-12-09T23:07:20.713Z,83.77
2017-12-09T23:09:48.227Z,81.08
2017-12-09T23:12:15.830Z,78.80
2017-12-09T23:14:43.411Z,81.67
2017-12-09T23:17:10.977Z,83.01
2017-12-09T23:19:38.493Z,83.11
2017-12-09T23:22:06.096Z,84.32
2017-12-09T23:24:34.734Z,84.07
2017-12-09T23:27:02.236Z,83.12
2017-12-09T23:29:29.761Z,85.02
2017-12-09T23:31:57.262Z,84.81
2017-12-09T23:34:24.810Z,85.98
2017-12-09T23:36:52.955Z,84.13
2017-12-09T23:39:20.464Z,83.25
2017-12-09T23:41:47.966Z,83.97
2017-12-09T23:44:15.479Z,81.61
2017-12-09T23:46:43.038Z,81.39
2017-12-09T23:49:10.680Z,82.61
2017-12-09T23:51:39.070Z,83.13
2017-12-09T23:54:07.342Z,85.47
2017-12-09T23:56:34.836Z,85.41
2017-12-09T23:59:02.333Z,85.05
